Bell Gardens, California
Current Conditions -  °F | °C
As of 1:47 PM on Thursday 27 Nov 2014 (Local Time) from KCQT Reporting Station
Clear Clear  
Wind Chill: 89°   Ceiling: Unl
Heat Index: 89°   Visibility: 10mi
Dew Point: 19°   Wind: 0mph
Humidity: 8%   Direction: NA
Pressure: 29.99"   Gusts: NA
Location:  33.97°N, 118.14°W
Report Text: KCQT 272147Z AUTO 00000KT 10SM CLR 32/M07 A2999 RMK AO2 SLP153 T03171072
Loading
Personal Weather Stations






























Interactive Weather Map New forecast layout! Learn more

10-Day Weather Forecast

Advertisements
Track Severe Weather on mobile